sensor_id;sensor_type;location;lat;lon;timestamp;pressure;altitude;pressure_sealevel;temperature;humidity
17873;BME280;36318;42.620;23.338;2023-03-15T00:00:41;91998.91;;;4.01;100.00
17873;BME280;36318;42.620;23.338;2023-03-15T00:03:09;92003.84;;;4.04;100.00
17873;BME280;36318;42.620;23.338;2023-03-15T00:05:36;91989.84;;;4.08;100.00
17873;BME280;36318;42.620;23.338;2023-03-15T00:08:06;91988.06;;;3.97;100.00
17873;BME280;36318;42.620;23.338;2023-03-15T00:10:33;91983.75;;;3.98;100.00
17873;BME280;36318;42.620;23.338;2023-03-15T00:12:59;91992.59;;;3.94;100.00
17873;BME280;36318;42.620;23.338;2023-03-15T00:15:26;91985.72;;;3.94;100.00
17873;BME280;36318;42.620;23.338;2023-03-15T00:17:53;91993.22;;;3.97;100.00
17873;BME280;36318;42.620;23.338;2023-03-15T00:20:21;91991.34;;;3.99;100.00
17873;BME280;36318;42.620;23.338;2023-03-15T00:22:48;91984.81;;;4.06;100.00
17873;BME280;36318;42.620;23.338;2023-03-15T00:25:15;91990.81;;;4.18;100.00
17873;BME280;36318;42.620;23.338;2023-03-15T00:27:41;91988.94;;;4.20;100.00
17873;BME280;36318;42.620;23.338;2023-03-15T00:30:08;91988.59;;;4.13;100.00
17873;BME280;36318;42.620;23.338;2023-03-15T00:32:35;91975.75;;;4.13;100.00
17873;BME280;36318;42.620;23.338;2023-03-15T00:35:01;91973.75;;;4.17;100.00
17873;BME280;36318;42.620;23.338;2023-03-15T00:37:29;91981.34;;;4.18;100.00
17873;BME280;36318;42.620;23.338;2023-03-15T00:39:56;91981.00;;;4.23;100.00
17873;BME280;36318;42.620;23.338;2023-03-15T00:42:23;91988.75;;;4.45;99.68
17873;BME280;36318;42.620;23.338;2023-03-15T00:44:52;91983.63;;;4.56;98.26
17873;BME280;36318;42.620;23.338;2023-03-15T00:47:18;91981.41;;;4.74;95.48
17873;BME280;36318;42.620;23.338;2023-03-15T00:49:45;91974.38;;;4.76;98.44
17873;BME280;36318;42.620;23.338;2023-03-15T00:52:11;91971.59;;;4.68;100.00
17873;BME280;36318;42.620;23.338;2023-03-15T00:54:39;91970.06;;;4.65;100.00
17873;BME280;36318;42.620;23.338;2023-03-15T00:57:07;91961.44;;;4.66;100.00
17873;BME280;36318;42.620;23.338;2023-03-15T00:59:34;91962.50;;;4.64;100.00
17873;BME280;36318;42.620;23.338;2023-03-15T01:02:01;91953.84;;;4.54;100.00
17873;BME280;36318;42.620;23.338;2023-03-15T01:04:27;91955.00;;;4.72;98.12
17873;BME280;36318;42.620;23.338;2023-03-15T01:06:54;91951.84;;;4.79;100.00
17873;BME280;36318;42.620;23.338;2023-03-15T01:09:20;91940.75;;;4.79;98.85
17873;BME280;36318;42.620;23.338;2023-03-15T01:11:49;91942.63;;;4.77;96.82
17873;BME280;36318;42.620;23.338;2023-03-15T01:14:15;91939.34;;;4.86;95.69
17873;BME280;36318;42.620;23.338;2023-03-15T01:16:43;91937.34;;;4.90;97.28
17873;BME280;36318;42.620;23.338;2023-03-15T01:19:10;91932.19;;;4.90;100.00
17873;BME280;36318;42.620;23.338;2023-03-15T01:21:36;91931.41;;;4.89;100.00
17873;BME280;36318;42.620;23.338;2023-03-15T01:24:03;91929.41;;;4.81;100.00
17873;BME280;36318;42.620;23.338;2023-03-15T01:26:30;91935.16;;;4.74;100.00
17873;BME280;36318;42.620;23.338;2023-03-15T01:28:58;91930.38;;;4.69;100.00
17873;BME280;36318;42.620;23.338;2023-03-15T01:31:25;91928.72;;;4.68;100.00
17873;BME280;36318;42.620;23.338;2023-03-15T01:33:52;91917.88;;;4.65;100.00
17873;BME280;36318;42.620;23.338;2023-03-15T01:36:19;91915.66;;;4.60;100.00
17873;BME280;36318;42.620;23.338;2023-03-15T01:38:46;91911.91;;;4.64;100.00
17873;BME280;36318;42.620;23.338;2023-03-15T01:41:13;91916.47;;;4.61;100.00
17873;BME280;36318;42.620;23.338;2023-03-15T01:43:40;91907.25;;;4.58;100.00
17873;BME280;36318;42.620;23.338;2023-03-15T01:46:18;91906.31;;;4.48;100.00
17873;BME280;36318;42.620;23.338;2023-03-15T01:48:48;91911.31;;;4.50;100.00
17873;BME280;36318;42.620;23.338;2023-03-15T01:51:17;91902.78;;;4.60;100.00
17873;BME280;36318;42.620;23.338;2023-03-15T01:53:48;91898.00;;;4.67;100.00
17873;BME280;36318;42.620;23.338;2023-03-15T01:56:17;91896.50;;;4.64;100.00
17873;BME280;36318;42.620;23.338;2023-03-15T01:58:43;91895.56;;;4.54;100.00
17873;BME280;36318;42.620;23.338;2023-03-15T02:01:10;91894.41;;;4.47;100.00
17873;BME280;36318;42.620;23.338;2023-03-15T02:03:40;91902.81;;;4.49;100.00
17873;BME280;36318;42.620;23.338;2023-03-15T02:06:11;91890.53;;;4.42;100.00
17873;BME280;36318;42.620;23.338;2023-03-15T02:08:43;91890.91;;;4.37;100.00
17873;BME280;36318;42.620;23.338;2023-03-15T02:11:10;91877.59;;;4.43;100.00
17873;BME280;36318;42.620;23.338;2023-03-15T02:13:38;91870.81;;;4.42;100.00
17873;BME280;36318;42.620;23.338;2023-03-15T02:16:06;91864.03;;;4.41;100.00
17873;BME280;36318;42.620;23.338;2023-03-15T02:18:32;91866.28;;;4.35;100.00
17873;BME280;36318;42.620;23.338;2023-03-15T02:21:04;91860.56;;;4.31;100.00
17873;BME280;36318;42.620;23.338;2023-03-15T02:23:33;91860.41;;;4.33;100.00
17873;BME280;36318;42.620;23.338;2023-03-15T02:26:01;91863.34;;;4.28;100.00
17873;BME280;36318;42.620;23.338;2023-03-15T02:28:34;91854.72;;;4.18;100.00
17873;BME280;36318;42.620;23.338;2023-03-15T02:31:01;91852.38;;;4.15;100.00
17873;BME280;36318;42.620;23.338;2023-03-15T02:33:29;91855.41;;;4.20;100.00
17873;BME280;36318;42.620;23.338;2023-03-15T02:35:58;91852.84;;;4.20;100.00
17873;BME280;36318;42.620;23.338;2023-03-15T02:38:31;91853.31;;;4.14;100.00
17873;BME280;36318;42.620;23.338;2023-03-15T02:40:58;91849.34;;;4.10;100.00
17873;BME280;36318;42.620;23.338;2023-03-15T02:43:25;91850.97;;;4.11;100.00
17873;BME280;36318;42.620;23.338;2023-03-15T02:45:55;91851.22;;;4.08;100.00
17873;BME280;36318;42.620;23.338;2023-03-15T02:48:21;91854.25;;;4.02;100.00
17873;BME280;36318;42.620;23.338;2023-03-15T02:50:48;91846.91;;;3.97;100.00
17873;BME280;36318;42.620;23.338;2023-03-15T02:53:14;91848.28;;;3.90;100.00
17873;BME280;36318;42.620;23.338;2023-03-15T02:55:41;91848.16;;;3.81;100.00
17873;BME280;36318;42.620;23.338;2023-03-15T02:58:07;91843.03;;;3.81;100.00
17873;BME280;36318;42.620;23.338;2023-03-15T03:00:34;91841.53;;;3.78;100.00
17873;BME280;36318;42.620;23.338;2023-03-15T03:03:02;91842.06;;;3.71;100.00
17873;BME280;36318;42.620;23.338;2023-03-15T03:05:28;91842.78;;;3.61;100.00
17873;BME280;36318;42.620;23.338;2023-03-15T03:07:55;91830.88;;;3.60;100.00
17873;BME280;36318;42.620;23.338;2023-03-15T03:10:23;91827.38;;;3.61;100.00
17873;BME280;36318;42.620;23.338;2023-03-15T03:12:49;91815.47;;;3.60;100.00
17873;BME280;36318;42.620;23.338;2023-03-15T03:15:17;91824.44;;;3.55;100.00
17873;BME280;36318;42.620;23.338;2023-03-15T03:17:44;91815.44;;;3.49;100.00
17873;BME280;36318;42.620;23.338;2023-03-15T03:20:12;91818.25;;;3.46;100.00
17873;BME280;36318;42.620;23.338;2023-03-15T03:22:39;91811.84;;;3.52;100.00
17873;BME280;36318;42.620;23.338;2023-03-15T03:25:07;91810.81;;;3.66;100.00
17873;BME280;36318;42.620;23.338;2023-03-15T03:27:35;91803.50;;;3.72;100.00
17873;BME280;36318;42.620;23.338;2023-03-15T03:30:02;91800.22;;;3.81;100.00
17873;BME280;36318;42.620;23.338;2023-03-15T03:32:29;91791.72;;;3.81;100.00
17873;BME280;36318;42.620;23.338;2023-03-15T03:34:56;91793.47;;;3.80;100.00
17873;BME280;36318;42.620;23.338;2023-03-15T03:37:24;91804.56;;;3.81;100.00
17873;BME280;36318;42.620;23.338;2023-03-15T03:39:50;91796.63;;;3.84;100.00
17873;BME280;36318;42.620;23.338;2023-03-15T03:42:17;91794.53;;;3.89;100.00
17873;BME280;36318;42.620;23.338;2023-03-15T03:44:43;91794.53;;;3.89;100.00
17873;BME280;36318;42.620;23.338;2023-03-15T03:47:10;91790.06;;;3.91;100.00
17873;BME280;36318;42.620;23.338;2023-03-15T03:49:37;91802.31;;;3.87;100.00
17873;BME280;36318;42.620;23.338;2023-03-15T03:52:04;91793.69;;;3.88;100.00
17873;BME280;36318;42.620;23.338;2023-03-15T03:54:32;91787.28;;;3.94;100.00
17873;BME280;36318;42.620;23.338;2023-03-15T03:56:58;91790.44;;;3.97;100.00
17873;BME280;36318;42.620;23.338;2023-03-15T03:59:25;91785.88;;;4.01;100.00
17873;BME280;36318;42.620;23.338;2023-03-15T04:01:51;91778.84;;;4.03;100.00
17873;BME280;36318;42.620;23.338;2023-03-15T04:04:18;91787.28;;;4.05;100.00
17873;BME280;36318;42.620;23.338;2023-03-15T04:06:44;91776.88;;;4.06;100.00
17873;BME280;36318;42.620;23.338;2023-03-15T04:09:11;91774.22;;;4.08;100.00
17873;BME280;36318;42.620;23.338;2023-03-15T04:11:39;91762.66;;;4.13;100.00
17873;BME280;36318;42.620;23.338;2023-03-15T04:14:08;91767.78;;;4.13;100.00
17873;BME280;36318;42.620;23.338;2023-03-15T04:16:34;91772.09;;;4.13;100.00
17873;BME280;36318;42.620;23.338;2023-03-15T04:19:01;91774.53;;;4.14;100.00
17873;BME280;36318;42.620;23.338;2023-03-15T04:21:27;91773.72;;;4.14;100.00
17873;BME280;36318;42.620;23.338;2023-03-15T04:23:56;91765.09;;;4.15;100.00
17873;BME280;36318;42.620;23.338;2023-03-15T04:26:22;91763.22;;;4.17;100.00
17873;BME280;36318;42.620;23.338;2023-03-15T04:28:52;91770.81;;;4.18;100.00
17873;BME280;36318;42.620;23.338;2023-03-15T04:31:18;91767.44;;;4.18;100.00
17873;BME280;36318;42.620;23.338;2023-03-15T04:33:45;91766.16;;;4.12;100.00
17873;BME280;36318;42.620;23.338;2023-03-15T04:36:11;91765.09;;;4.15;100.00
17873;BME280;36318;42.620;23.338;2023-03-15T04:38:42;91756.56;;;4.14;100.00
17873;BME280;36318;42.620;23.338;2023-03-15T04:41:11;91759.97;;;4.15;100.00
17873;BME280;36318;42.620;23.338;2023-03-15T04:43:37;91760.66;;;4.17;100.00
17873;BME280;36318;42.620;23.338;2023-03-15T04:46:05;91760.78;;;4.15;100.00
17873;BME280;36318;42.620;23.338;2023-03-15T04:48:32;91769.16;;;4.17;100.00
17873;BME280;36318;42.620;23.338;2023-03-15T04:50:58;91761.69;;;4.14;100.00
17873;BME280;36318;42.620;23.338;2023-03-15T04:53:25;91767.53;;;4.16;100.00
17873;BME280;36318;42.620;23.338;2023-03-15T04:55:51;91772.66;;;4.16;100.00
17873;BME280;36318;42.620;23.338;2023-03-15T04:58:18;91765.69;;;4.18;100.00
17873;BME280;36318;42.620;23.338;2023-03-15T05:00:45;91768.69;;;4.23;100.00
17873;BME280;36318;42.620;23.338;2023-03-15T05:03:12;91765.31;;;4.23;100.00
17873;BME280;36318;42.620;23.338;2023-03-15T05:05:39;91774.75;;;4.22;100.00
17873;BME280;36318;42.620;23.338;2023-03-15T05:08:06;91772.31;;;4.21;100.00
17873;BME280;36318;42.620;23.338;2023-03-15T05:10:33;91768.13;;;4.20;100.00
17873;BME280;36318;42.620;23.338;2023-03-15T05:12:59;91762.50;;;4.26;100.00
17873;BME280;36318;42.620;23.338;2023-03-15T05:15:26;91762.13;;;4.31;100.00
17873;BME280;36318;42.620;23.338;2023-03-15T05:17:52;91761.81;;;4.35;100.00
17873;BME280;36318;42.620;23.338;2023-03-15T05:20:21;91766.44;;;4.41;100.00
17873;BME280;36318;42.620;23.338;2023-03-15T05:22:49;91759.44;;;4.43;100.00
17873;BME280;36318;42.620;23.338;2023-03-15T05:25:17;91765.50;;;4.42;100.00
17873;BME280;36318;42.620;23.338;2023-03-15T05:27:43;91754.75;;;4.48;100.00
17873;BME280;36318;42.620;23.338;2023-03-15T05:30:11;91752.94;;;4.60;100.00
17873;BME280;36318;42.620;23.338;2023-03-15T05:32:38;91747.91;;;4.69;100.00
17873;BME280;36318;42.620;23.338;2023-03-15T05:35:09;91746.16;;;4.70;100.00
17873;BME280;36318;42.620;23.338;2023-03-15T05:37:37;91744.88;;;4.75;100.00
17873;BME280;36318;42.620;23.338;2023-03-15T05:40:04;91746.69;;;4.84;100.00
17873;BME280;36318;42.620;23.338;2023-03-15T05:42:33;91744.53;;;4.90;100.00
17873;BME280;36318;42.620;23.338;2023-03-15T05:44:59;91740.56;;;4.97;100.00
17873;BME280;36318;42.620;23.338;2023-03-15T05:47:26;91741.56;;;5.05;100.00
17873;BME280;36318;42.620;23.338;2023-03-15T05:49:53;91734.16;;;5.12;100.00
17873;BME280;36318;42.620;23.338;2023-03-15T05:52:19;91740.31;;;5.20;100.00
17873;BME280;36318;42.620;23.338;2023-03-15T05:54:47;91746.91;;;5.34;100.00
17873;BME280;36318;42.620;23.338;2023-03-15T05:57:14;91750.91;;;5.48;100.00
17873;BME280;36318;42.620;23.338;2023-03-15T05:59:40;91752.91;;;5.44;100.00
17873;BME280;36318;42.620;23.338;2023-03-15T06:02:07;91750.66;;;5.51;100.00
17873;BME280;36318;42.620;23.338;2023-03-15T06:04:34;91748.31;;;5.89;100.00
17873;BME280;36318;42.620;23.338;2023-03-15T06:07:02;91759.28;;;6.21;100.00
17873;BME280;36318;42.620;23.338;2023-03-15T06:09:29;91751.50;;;6.51;100.00
17873;BME280;36318;42.620;23.338;2023-03-15T06:11:57;91743.66;;;6.72;98.24
17873;BME280;36318;42.620;23.338;2023-03-15T06:14:23;91741.75;;;7.03;93.84
17873;BME280;36318;42.620;23.338;2023-03-15T06:16:50;91736.72;;;7.30;91.60
17873;BME280;36318;42.620;23.338;2023-03-15T06:19:16;91744.16;;;7.62;88.36
17873;BME280;36318;42.620;23.338;2023-03-15T06:21:43;91749.97;;;7.64;81.35
17873;BME280;36318;42.620;23.338;2023-03-15T06:24:10;91741.75;;;7.32;75.68
17873;BME280;36318;42.620;23.338;2023-03-15T06:26:36;91742.84;;;7.29;77.65
17873;BME280;36318;42.620;23.338;2023-03-15T06:29:04;91734.50;;;7.64;77.42
17873;BME280;36318;42.620;23.338;2023-03-15T06:31:31;91720.28;;;8.24;75.22
17873;BME280;36318;42.620;23.338;2023-03-15T06:33:58;91725.59;;;8.94;71.37
17873;BME280;36318;42.620;23.338;2023-03-15T06:36:25;91731.19;;;8.90;66.75
17873;BME280;36318;42.620;23.338;2023-03-15T06:38:52;91730.97;;;8.83;67.02
17873;BME280;36318;42.620;23.338;2023-03-15T06:41:19;91728.06;;;9.83;65.75
17873;BME280;36318;42.620;23.338;2023-03-15T06:43:45;91724.91;;;11.55;60.48
17873;BME280;36318;42.620;23.338;2023-03-15T06:46:13;91719.53;;;12.90;55.44
17873;BME280;36318;42.620;23.338;2023-03-15T06:48:41;91715.22;;;14.33;51.54
17873;BME280;36318;42.620;23.338;2023-03-15T06:51:07;91718.09;;;14.82;48.53
17873;BME280;36318;42.620;23.338;2023-03-15T06:53:34;91720.19;;;15.23;47.06
17873;BME280;36318;42.620;23.338;2023-03-15T06:56:00;91713.53;;;14.70;47.88
17873;BME280;36318;42.620;23.338;2023-03-15T06:58:27;91717.94;;;13.65;49.02
17873;BME280;36318;42.620;23.338;2023-03-15T07:00:53;91719.38;;;12.53;51.29
17873;BME280;36318;42.620;23.338;2023-03-15T07:03:21;91716.63;;;12.46;52.80
17873;BME280;36318;42.620;23.338;2023-03-15T07:05:48;91714.06;;;13.61;51.03
17873;BME280;36318;42.620;23.338;2023-03-15T07:08:16;91704.16;;;14.75;48.52
17873;BME280;36318;42.620;23.338;2023-03-15T07:10:43;91698.66;;;15.57;46.80
17873;BME280;36318;42.620;23.338;2023-03-15T07:13:10;91695.84;;;15.22;44.84
17873;BME280;36318;42.620;23.338;2023-03-15T07:15:37;91699.09;;;14.88;46.26
17873;BME280;36318;42.620;23.338;2023-03-15T07:18:04;91701.28;;;15.42;45.78
17873;BME280;36318;42.620;23.338;2023-03-15T07:20:32;91701.72;;;15.24;45.41
17873;BME280;36318;42.620;23.338;2023-03-15T07:22:58;91701.66;;;15.39;44.74
17873;BME280;36318;42.620;23.338;2023-03-15T07:25:25;91708.88;;;15.01;44.50
17873;BME280;36318;42.620;23.338;2023-03-15T07:27:52;91710.19;;;15.90;43.68
17873;BME280;36318;42.620;23.338;2023-03-15T07:30:19;91701.19;;;16.48;43.25
17873;BME280;36318;42.620;23.338;2023-03-15T07:32:46;91699.81;;;16.86;42.95
17873;BME280;36318;42.620;23.338;2023-03-15T07:35:12;91695.13;;;16.82;41.30
17873;BME280;36318;42.620;23.338;2023-03-15T07:37:40;91702.75;;;18.37;40.34
17873;BME280;36318;42.620;23.338;2023-03-15T07:40:08;91690.88;;;19.94;38.95
17873;BME280;36318;42.620;23.338;2023-03-15T07:42:34;91689.28;;;21.28;36.20
17873;BME280;36318;42.620;23.338;2023-03-15T07:45:01;91685.78;;;21.16;36.08
17873;BME280;36318;42.620;23.338;2023-03-15T07:47:28;91671.69;;;21.99;35.00
17873;BME280;36318;42.620;23.338;2023-03-15T07:49:55;91673.44;;;21.46;35.28
17873;BME280;36318;42.620;23.338;2023-03-15T07:52:21;91678.59;;;20.44;36.17
17873;BME280;36318;42.620;23.338;2023-03-15T07:54:49;91686.81;;;20.22;36.57
17873;BME280;36318;42.620;23.338;2023-03-15T07:57:16;91690.06;;;19.18;36.05
17873;BME280;36318;42.620;23.338;2023-03-15T07:59:43;91694.69;;;18.32;37.63
17873;BME280;36318;42.620;23.338;2023-03-15T08:02:10;91693.25;;;17.83;38.47
17873;BME280;36318;42.620;23.338;2023-03-15T08:04:37;91693.41;;;17.56;39.74
17873;BME280;36318;42.620;23.338;2023-03-15T08:07:03;91692.66;;;17.81;39.60
17873;BME280;36318;42.620;23.338;2023-03-15T08:09:30;91691.84;;;17.74;39.45
17873;BME280;36318;42.620;23.338;2023-03-15T08:12:00;91685.16;;;17.65;39.48
17873;BME280;36318;42.620;23.338;2023-03-15T08:14:27;91689.56;;;16.98;40.61
17873;BME280;36318;42.620;23.338;2023-03-15T08:16:55;91681.53;;;17.06;39.96
17873;BME280;36318;42.620;23.338;2023-03-15T08:19:22;91682.75;;;17.70;39.00
17873;BME280;36318;42.620;23.338;2023-03-15T08:21:49;91663.56;;;18.09;38.37
17873;BME280;36318;42.620;23.338;2023-03-15T08:24:18;91673.28;;;18.02;38.56
17873;BME280;36318;42.620;23.338;2023-03-15T08:26:45;91666.34;;;18.60;38.96
17873;BME280;36318;42.620;23.338;2023-03-15T08:29:13;91660.63;;;18.89;37.85
17873;BME280;36318;42.620;23.338;2023-03-15T08:31:40;91654.53;;;18.95;37.34
17873;BME280;36318;42.620;23.338;2023-03-15T08:34:06;91665.38;;;17.96;38.63
17873;BME280;36318;42.620;23.338;2023-03-15T08:36:33;91672.25;;;17.77;39.18
17873;BME280;36318;42.620;23.338;2023-03-15T08:39:00;91671.66;;;18.21;38.38
17873;BME280;36318;42.620;23.338;2023-03-15T08:41:26;91663.69;;;19.31;38.03
17873;BME280;36318;42.620;23.338;2023-03-15T08:43:53;91647.13;;;20.67;36.26
17873;BME280;36318;42.620;23.338;2023-03-15T08:46:21;91640.28;;;19.85;35.57
17873;BME280;36318;42.620;23.338;2023-03-15T08:48:47;91656.72;;;20.37;35.41
17873;BME280;36318;42.620;23.338;2023-03-15T08:51:14;91666.53;;;20.54;35.32
17873;BME280;36318;42.620;23.338;2023-03-15T08:53:40;91666.28;;;18.93;36.70
17873;BME280;36318;42.620;23.338;2023-03-15T08:56:07;91679.19;;;17.24;38.79
17873;BME280;36318;42.620;23.338;2023-03-15T08:58:34;91687.00;;;16.08;40.34
17873;BME280;36318;42.620;23.338;2023-03-15T09:01:01;91692.28;;;15.66;41.86
17873;BME280;36318;42.620;23.338;2023-03-15T09:03:30;91686.13;;;16.01;41.18
17873;BME280;36318;42.620;23.338;2023-03-15T09:05:58;91680.16;;;16.62;40.75
17873;BME280;36318;42.620;23.338;2023-03-15T09:08:30;91674.91;;;16.62;41.11
17873;BME280;36318;42.620;23.338;2023-03-15T09:10:58;91681.56;;;16.37;41.31
17873;BME280;36318;42.620;23.338;2023-03-15T09:13:26;91682.28;;;15.97;42.07
17873;BME280;36318;42.620;23.338;2023-03-15T09:15:53;91690.47;;;14.44;42.75
17873;BME280;36318;42.620;23.338;2023-03-15T09:18:20;91682.06;;;12.99;45.18
17873;BME280;36318;42.620;23.338;2023-03-15T09:20:48;91698.22;;;12.09;47.54
17873;BME280;36318;42.620;23.338;2023-03-15T09:23:14;91707.38;;;12.44;48.21
17873;BME280;36318;42.620;23.338;2023-03-15T09:25:41;91691.53;;;12.62;48.56
17873;BME280;36318;42.620;23.338;2023-03-15T09:28:08;91700.53;;;12.82;48.51
17873;BME280;36318;42.620;23.338;2023-03-15T09:30:36;91687.44;;;12.67;47.33
17873;BME280;36318;42.620;23.338;2023-03-15T09:33:02;91694.34;;;12.52;47.24
17873;BME280;36318;42.620;23.338;2023-03-15T09:35:29;91694.22;;;11.82;48.44
17873;BME280;36318;42.620;23.338;2023-03-15T09:37:57;91695.84;;;12.38;47.76
17873;BME280;36318;42.620;23.338;2023-03-15T09:40:24;91612.97;;;12.89;47.95
17873;BME280;36318;42.620;23.338;2023-03-15T09:42:54;91676.19;;;13.88;46.58
17873;BME280;36318;42.620;23.338;2023-03-15T09:45:23;91672.50;;;13.83;46.00
17873;BME280;36318;42.620;23.338;2023-03-15T09:47:54;91671.28;;;13.33;45.92
17873;BME280;36318;42.620;23.338;2023-03-15T09:50:26;91668.44;;;12.20;48.17
17873;BME280;36318;42.620;23.338;2023-03-15T09:52:55;91664.78;;;12.45;48.42
17873;BME280;36318;42.620;23.338;2023-03-15T09:55:25;91664.47;;;12.40;48.30
17873;BME280;36318;42.620;23.338;2023-03-15T09:57:52;91663.50;;;11.86;48.30
17873;BME280;36318;42.620;23.338;2023-03-15T10:00:22;91666.13;;;11.54;49.63
17873;BME280;36318;42.620;23.338;2023-03-15T10:02:54;91671.47;;;11.76;50.33
17873;BME280;36318;42.620;23.338;2023-03-15T10:05:26;91673.91;;;11.62;50.17
17873;BME280;36318;42.620;23.338;2023-03-15T10:07:53;91673.41;;;11.90;51.26
17873;BME280;36318;42.620;23.338;2023-03-15T10:10:21;91662.56;;;12.26;51.01
17873;BME280;36318;42.620;23.338;2023-03-15T10:12:55;91663.41;;;12.57;49.78
17873;BME280;36318;42.620;23.338;2023-03-15T10:15:32;91671.06;;;12.89;49.81
17873;BME280;36318;42.620;23.338;2023-03-15T10:18:09;91662.25;;;12.90;48.53
17873;BME280;36318;42.620;23.338;2023-03-15T10:20:42;91667.25;;;13.00;48.64
17873;BME280;36318;42.620;23.338;2023-03-15T10:23:10;91671.56;;;13.15;48.18
17873;BME280;36318;42.620;23.338;2023-03-15T10:25:39;91676.75;;;12.62;48.90
17873;BME280;36318;42.620;23.338;2023-03-15T10:28:09;91673.44;;;11.74;49.34
17873;BME280;36318;42.620;23.338;2023-03-15T10:30:38;91661.22;;;11.67;50.00
17873;BME280;36318;42.620;23.338;2023-03-15T10:33:07;91662.72;;;11.77;50.30
17873;BME280;36318;42.620;23.338;2023-03-15T10:35:39;91669.88;;;11.43;50.26
17873;BME280;36318;42.620;23.338;2023-03-15T10:38:12;91666.78;;;11.31;50.71
17873;BME280;36318;42.620;23.338;2023-03-15T10:40:40;91673.75;;;11.07;51.24
17873;BME280;36318;42.620;23.338;2023-03-15T10:43:12;91669.69;;;11.04;51.89
17873;BME280;36318;42.620;23.338;2023-03-15T10:45:42;91668.88;;;11.28;51.93
17873;BME280;36318;42.620;23.338;2023-03-15T10:48:11;91656.53;;;11.22;51.53
17873;BME280;36318;42.620;23.338;2023-03-15T10:50:38;91665.00;;;11.16;52.38
17873;BME280;36318;42.620;23.338;2023-03-15T10:53:07;91665.31;;;10.97;52.11
17873;BME280;36318;42.620;23.338;2023-03-15T10:55:35;91668.22;;;10.94;52.84
17873;BME280;36318;42.620;23.338;2023-03-15T10:58:11;91672.09;;;10.81;51.82
17873;BME280;36318;42.620;23.338;2023-03-15T11:00:43;91662.09;;;11.11;53.46
17873;BME280;36318;42.620;23.338;2023-03-15T11:03:16;91658.66;;;11.26;53.55
17873;BME280;36318;42.620;23.338;2023-03-15T11:05:43;91649.56;;;11.30;52.91
17873;BME280;36318;42.620;23.338;2023-03-15T11:08:12;91654.88;;;10.64;52.51
17873;BME280;36318;42.620;23.338;2023-03-15T11:10:39;91657.25;;;10.50;53.30
17873;BME280;36318;42.620;23.338;2023-03-15T11:13:10;91652.91;;;10.58;53.73
17873;BME280;36318;42.620;23.338;2023-03-15T11:15:37;91648.91;;;10.88;53.26
17873;BME280;36318;42.620;23.338;2023-03-15T11:18:05;91655.69;;;10.65;53.34
17873;BME280;36318;42.620;23.338;2023-03-15T11:20:33;91646.00;;;11.07;54.18
17873;BME280;36318;42.620;23.338;2023-03-15T11:23:00;91652.66;;;11.42;54.13
17873;BME280;36318;42.620;23.338;2023-03-15T11:25:31;91650.53;;;11.70;53.66
17873;BME280;36318;42.620;23.338;2023-03-15T11:27:58;91659.13;;;11.78;51.57
17873;BME280;36318;42.620;23.338;2023-03-15T11:30:26;91662.06;;;11.83;51.13
17873;BME280;36318;42.620;23.338;2023-03-15T11:32:53;91651.72;;;12.06;52.11
17873;BME280;36318;42.620;23.338;2023-03-15T11:35:23;91641.81;;;12.10;50.76
17873;BME280;36318;42.620;23.338;2023-03-15T11:37:53;91634.63;;;12.20;50.91
17873;BME280;36318;42.620;23.338;2023-03-15T11:40:21;91632.19;;;12.18;50.65
17873;BME280;36318;42.620;23.338;2023-03-15T11:42:49;91637.91;;;12.14;50.26
17873;BME280;36318;42.620;23.338;2023-03-15T11:45:18;91638.06;;;12.12;51.21
17873;BME280;36318;42.620;23.338;2023-03-15T11:47:49;91631.84;;;12.29;50.80
17873;BME280;36318;42.620;23.338;2023-03-15T11:50:18;91632.56;;;12.46;52.04
17873;BME280;36318;42.620;23.338;2023-03-15T11:52:47;91626.81;;;12.58;50.73
17873;BME280;36318;42.620;23.338;2023-03-15T11:55:16;91626.28;;;12.63;50.21
17873;BME280;36318;42.620;23.338;2023-03-15T11:57:43;91629.19;;;12.68;50.41
17873;BME280;36318;42.620;23.338;2023-03-15T12:00:18;91628.22;;;12.30;49.82
17873;BME280;36318;42.620;23.338;2023-03-15T12:02:47;91635.06;;;11.76;50.68
17873;BME280;36318;42.620;23.338;2023-03-15T12:07:58;91620.28;;;11.85;51.30
17873;BME280;36318;42.620;23.338;2023-03-15T12:10:32;91607.84;;;12.03;51.12
17873;BME280;36318;42.620;23.338;2023-03-15T12:13:04;91612.34;;;12.17;51.60
17873;BME280;36318;42.620;23.338;2023-03-15T12:15:45;91610.72;;;12.24;51.09
17873;BME280;36318;42.620;23.338;2023-03-15T12:18:29;91607.91;;;12.34;51.02
17873;BME280;36318;42.620;23.338;2023-03-15T12:21:03;91601.34;;;12.07;49.47
17873;BME280;36318;42.620;23.338;2023-03-15T12:23:34;91607.81;;;11.72;50.42
17873;BME280;36318;42.620;23.338;2023-03-15T12:26:06;91614.44;;;11.67;51.22
17873;BME280;36318;42.620;23.338;2023-03-15T12:28:35;91611.84;;;11.67;51.53
17873;BME280;36318;42.620;23.338;2023-03-15T12:31:03;91607.81;;;11.72;51.33
17873;BME280;36318;42.620;23.338;2023-03-15T12:33:31;91605.84;;;11.74;52.06
17873;BME280;36318;42.620;23.338;2023-03-15T12:35:59;91593.66;;;11.83;53.39
17873;BME280;36318;42.620;23.338;2023-03-15T12:38:30;91604.38;;;11.80;52.25
17873;BME280;36318;42.620;23.338;2023-03-15T12:41:00;91605.00;;;11.82;52.17
17873;BME280;36318;42.620;23.338;2023-03-15T12:43:34;91597.72;;;11.77;52.41
17873;BME280;36318;42.620;23.338;2023-03-15T12:46:02;91595.97;;;11.70;53.09
17873;BME280;36318;42.620;23.338;2023-03-15T12:48:28;91600.06;;;11.32;52.82
17873;BME280;36318;42.620;23.338;2023-03-15T12:50:56;91602.69;;;10.84;52.78
17873;BME280;36318;42.620;23.338;2023-03-15T12:53:27;91596.50;;;11.01;52.96
17873;BME280;36318;42.620;23.338;2023-03-15T12:55:55;91598.31;;;11.08;52.59